createdAt,value
2018-02-04T00:01:33.821Z,1.60
2018-02-04T00:04:01.340Z,1.60
2018-02-04T00:06:28.821Z,1.60
2018-02-04T00:08:56.297Z,1.60
2018-02-04T00:11:23.779Z,1.50
2018-02-04T00:13:52.029Z,1.60
2018-02-04T00:16:20.434Z,1.60
2018-02-04T00:18:48.169Z,1.60
2018-02-04T00:21:15.621Z,1.60
2018-02-04T00:23:43.106Z,1.60
2018-02-04T00:26:10.590Z,1.60
2018-02-04T00:28:38.296Z,1.60
2018-02-04T00:31:05.780Z,1.50
2018-02-04T00:33:33.284Z,1.50
2018-02-04T00:36:05.001Z,1.50
2018-02-04T00:38:32.450Z,1.50
2018-02-04T00:41:00.314Z,1.40
2018-02-04T00:43:27.813Z,1.40
2018-02-04T00:45:55.442Z,1.40
2018-02-04T00:48:22.890Z,1.30
2018-02-04T00:50:50.350Z,1.30
2018-02-04T00:53:18.459Z,1.30
2018-02-04T00:55:45.924Z,1.30
2018-02-04T00:58:13.425Z,1.30
2018-02-04T01:00:41.503Z,1.30
2018-02-04T01:03:08.963Z,1.30
2018-02-04T01:05:36.511Z,1.40
2018-02-04T01:08:03.957Z,1.40
2018-02-04T01:10:31.887Z,1.40
2018-02-04T01:12:59.985Z,1.30
2018-02-04T01:15:27.464Z,1.30
2018-02-04T01:17:54.922Z,1.30
2018-02-04T01:20:22.360Z,1.30
2018-02-04T01:22:49.836Z,1.20
2018-02-04T01:25:17.305Z,1.10
2018-02-04T01:27:44.803Z,1.00
2018-02-04T01:30:12.572Z,0.90
2018-02-04T01:32:40.564Z,0.80
2018-02-04T01:35:08.021Z,0.70
2018-02-04T01:37:35.496Z,0.60
2018-02-04T01:40:02.998Z,0.50
2018-02-04T01:42:31.428Z,0.20
2018-02-04T01:44:59.600Z,0.30
2018-02-04T01:47:27.124Z,0.20
2018-02-04T01:49:54.616Z,0.00
2018-02-04T01:52:22.064Z,0.00
2018-02-04T01:54:49.520Z,-0.10
2018-02-04T01:57:17.060Z,-0.10
2018-02-04T01:59:44.539Z,-0.20
2018-02-04T02:02:12.017Z,-0.20
2018-02-04T02:04:39.497Z,-0.40
2018-02-04T02:07:15.020Z,-0.40
2018-02-04T02:09:42.480Z,-0.40
2018-02-04T02:12:09.977Z,-0.50
2018-02-04T02:14:37.477Z,-0.50
2018-02-04T02:17:04.941Z,-0.50
2018-02-04T02:19:34.167Z,-0.60
2018-02-04T02:22:01.622Z,-0.60
2018-02-04T02:24:29.249Z,-0.50
2018-02-04T02:26:58.587Z,-0.50
2018-02-04T02:29:26.800Z,-0.60
2018-02-04T02:31:54.290Z,-0.60
2018-02-04T02:34:22.689Z,-0.60
2018-02-04T02:36:50.136Z,-0.60
2018-02-04T02:39:21.831Z,-0.60
2018-02-04T02:41:49.301Z,-0.60
2018-02-04T02:44:17.017Z,-0.60
2018-02-04T02:46:44.790Z,-0.60
2018-02-04T02:49:12.271Z,-0.70
2018-02-04T02:51:39.750Z,-0.70
2018-02-04T02:54:07.257Z,-0.80
2018-02-04T02:56:34.905Z,-0.80
2018-02-04T02:59:02.379Z,-0.80
2018-02-04T03:01:29.817Z,-0.80
2018-02-04T03:03:57.318Z,-0.80
2018-02-04T03:06:24.792Z,-0.80
2018-02-04T03:08:52.273Z,-0.70
2018-02-04T03:11:20.344Z,-0.70
2018-02-04T03:13:47.823Z,-0.70
2018-02-04T03:16:15.280Z,-0.70
2018-02-04T03:18:42.781Z,-0.70
2018-02-04T03:21:11.027Z,-0.70
2018-02-04T03:23:38.477Z,-0.70
2018-02-04T03:26:05.978Z,-0.70
2018-02-04T03:28:34.380Z,-0.70
2018-02-04T03:31:01.899Z,-0.80
2018-02-04T03:33:30.107Z,-0.80
2018-02-04T03:35:59.255Z,-0.70
2018-02-04T03:38:30.220Z,-0.70
2018-02-04T03:40:57.848Z,-0.70
2018-02-04T03:43:25.491Z,-0.60
2018-02-04T03:45:54.483Z,-0.60
2018-02-04T03:48:21.932Z,-0.60
2018-02-04T03:50:49.412Z,-0.60
2018-02-04T03:53:16.883Z,-0.60
2018-02-04T03:55:44.474Z,-0.50
2018-02-04T03:58:11.941Z,-0.60
2018-02-04T04:00:39.372Z,-0.60
2018-02-04T04:03:08.784Z,-0.60
2018-02-04T04:05:36.304Z,-0.70
2018-02-04T04:08:03.751Z,-0.80
2018-02-04T04:10:32.197Z,-0.80
2018-02-04T04:12:59.630Z,-0.70
2018-02-04T04:15:27.124Z,-0.60
2018-02-04T04:17:54.581Z,-0.50
2018-02-04T04:20:22.028Z,-0.40
2018-02-04T04:22:49.506Z,-0.30
2018-02-04T04:25:16.999Z,-0.20
2018-02-04T04:27:46.173Z,-0.10
2018-02-04T04:30:13.652Z,-0.10
2018-02-04T04:32:41.428Z,-0.10
2018-02-04T04:35:08.976Z,0.00
2018-02-04T04:37:36.480Z,0.20
2018-02-04T04:40:03.937Z,0.30
2018-02-04T04:42:31.544Z,0.30
2018-02-04T04:44:59.872Z,0.20
2018-02-04T04:47:27.328Z,0.10
2018-02-04T04:49:54.844Z,0.00
2018-02-04T04:52:22.300Z,-0.10
2018-02-04T04:55:02.646Z,-0.40
2018-02-04T04:57:30.922Z,-0.40
2018-02-04T04:59:58.404Z,-0.50
2018-02-04T05:02:25.869Z,-0.60
2018-02-04T05:04:53.333Z,-0.70
2018-02-04T05:07:20.870Z,-0.80
2018-02-04T05:09:52.228Z,-0.90
2018-02-04T05:12:20.331Z,-1.00
2018-02-04T05:14:47.815Z,-1.10
2018-02-04T05:17:15.318Z,-1.10
2018-02-04T05:19:42.753Z,-1.20
2018-02-04T05:22:10.235Z,-1.20
2018-02-04T05:24:37.712Z,-1.30
2018-02-04T05:27:05.179Z,-1.40
2018-02-04T05:29:33.090Z,-1.50
2018-02-04T05:32:00.579Z,-1.50
2018-02-04T05:34:28.946Z,-1.50
2018-02-04T05:36:56.432Z,-1.50
2018-02-04T05:39:23.894Z,-1.50
2018-02-04T05:41:54.523Z,-1.50
2018-02-04T05:44:21.987Z,-1.50
2018-02-04T05:46:49.432Z,-1.50
2018-02-04T05:49:16.899Z,-1.50
2018-02-04T05:51:44.458Z,-1.50
2018-02-04T05:54:12.898Z,-1.60
2018-02-04T05:56:44.056Z,-1.70
2018-02-04T05:59:11.513Z,-1.70
2018-02-04T06:01:39.004Z,-1.60
2018-02-04T06:04:06.473Z,-1.70
2018-02-04T06:06:34.009Z,-1.80
2018-02-04T06:09:02.395Z,-1.90
2018-02-04T06:11:29.864Z,-1.90
2018-02-04T06:13:57.363Z,-2.00
2018-02-04T06:16:24.867Z,-1.90
2018-02-04T06:18:52.324Z,-1.70
2018-02-04T06:21:19.829Z,-1.50
2018-02-04T06:23:47.313Z,-1.40
2018-02-04T06:26:15.704Z,-1.20
2018-02-04T06:28:43.166Z,-1.00
2018-02-04T06:31:10.641Z,-0.90
2018-02-04T06:33:38.290Z,-1.00
2018-02-04T06:36:05.776Z,-0.90
2018-02-04T06:38:33.268Z,-0.90
2018-02-04T06:41:00.720Z,-0.90
2018-02-04T06:43:28.177Z,-0.90
2018-02-04T06:45:56.450Z,-0.80
2018-02-04T06:48:24.327Z,-0.80
2018-02-04T06:50:51.816Z,-0.70
2018-02-04T06:53:19.344Z,-0.60
2018-02-04T06:55:46.844Z,-0.50
2018-02-04T06:58:14.315Z,-0.40
2018-02-04T07:00:41.828Z,-0.20
2018-02-04T07:03:10.104Z,0.10
2018-02-04T07:05:37.738Z,0.10
2018-02-04T07:08:05.204Z,0.10
2018-02-04T07:10:32.651Z,0.20
2018-02-04T07:13:00.137Z,0.20
2018-02-04T07:15:27.712Z,0.30
2018-02-04T07:17:55.329Z,0.40
2018-02-04T07:20:23.329Z,0.40
2018-02-04T07:22:50.906Z,0.40
2018-02-04T07:25:18.402Z,0.30
2018-02-04T07:27:45.924Z,0.40
2018-02-04T07:30:13.424Z,0.50
2018-02-04T07:32:45.325Z,0.60
2018-02-04T07:35:13.299Z,0.70
2018-02-04T07:37:46.691Z,0.90
2018-02-04T07:40:17.445Z,1.00
2018-02-04T07:42:48.328Z,1.00
2018-02-04T07:45:15.828Z,1.00
2018-02-04T07:47:43.272Z,1.20
2018-02-04T07:50:10.760Z,1.20
2018-02-04T07:52:38.616Z,1.50
2018-02-04T07:55:06.887Z,1.60
2018-02-04T07:57:34.341Z,1.70
2018-02-04T08:00:01.886Z,1.80
2018-02-04T08:02:29.309Z,1.80
2018-02-04T08:04:56.790Z,1.70
2018-02-04T08:07:25.957Z,1.70
2018-02-04T08:09:53.458Z,1.70
2018-02-04T08:12:20.955Z,1.70
2018-02-04T08:14:48.418Z,1.70
2018-02-04T08:17:16.048Z,1.70
2018-02-04T08:19:43.532Z,1.70
2018-02-04T08:22:10.989Z,1.70
2018-02-04T08:24:38.513Z,1.80
2018-02-04T08:27:05.953Z,1.90
2018-02-04T08:29:34.336Z,1.90
2018-02-04T08:32:01.819Z,1.90
2018-02-04T08:34:29.317Z,1.90
2018-02-04T08:36:56.789Z,1.90
2018-02-04T08:39:24.270Z,2.00
2018-02-04T08:41:51.744Z,2.00
2018-02-04T08:44:19.460Z,2.10
2018-02-04T08:46:49.361Z,2.10
2018-02-04T08:49:16.849Z,2.10
2018-02-04T08:51:44.489Z,2.00
2018-02-04T08:54:12.773Z,2.00
2018-02-04T08:56:40.249Z,2.10
2018-02-04T08:59:19.030Z,2.10
2018-02-04T09:01:46.487Z,2.10
2018-02-04T09:04:13.981Z,2.20
2018-02-04T09:06:42.232Z,2.30
2018-02-04T09:09:09.780Z,2.20
2018-02-04T09:11:38.972Z,2.60
2018-02-04T09:14:06.426Z,2.50
2018-02-04T09:16:33.926Z,2.80
2018-02-04T09:19:01.918Z,3.00
2018-02-04T09:21:29.357Z,3.30
2018-02-04T09:23:58.546Z,3.80
2018-02-04T09:26:26.010Z,3.70
2018-02-04T09:28:54.283Z,4.10
2018-02-04T09:31:22.173Z,4.10
2018-02-04T09:33:49.668Z,4.30
2018-02-04T09:36:17.128Z,4.50
2018-02-04T09:38:44.651Z,4.70
2018-02-04T09:41:12.197Z,4.90
2018-02-04T09:43:40.611Z,5.10
2018-02-04T09:46:08.070Z,5.20
2018-02-04T09:48:36.152Z,5.30
2018-02-04T09:51:03.652Z,5.50
2018-02-04T09:53:32.075Z,5.70
2018-02-04T09:56:01.265Z,5.80
2018-02-04T09:58:28.752Z,5.80
2018-02-04T10:00:56.206Z,5.80
2018-02-04T10:03:23.666Z,5.70
2018-02-04T10:05:51.140Z,5.70
2018-02-04T10:08:18.712Z,5.70
2018-02-04T10:10:46.932Z,5.70
2018-02-04T10:13:14.764Z,5.70
2018-02-04T10:15:42.996Z,5.70
2018-02-04T10:18:10.500Z,5.60
2018-02-04T10:20:38.034Z,5.50
2018-02-04T10:23:05.512Z,5.40
2018-02-04T10:25:33.636Z,5.30
2018-02-04T10:28:01.106Z,5.20
2018-02-04T10:30:28.557Z,5.10
2018-02-04T10:32:56.432Z,5.10
2018-02-04T10:35:23.972Z,5.10
2018-02-04T10:37:51.440Z,5.20
2018-02-04T10:40:18.885Z,5.30
2018-02-04T10:42:47.521Z,5.40
2018-02-04T10:45:14.974Z,5.50
2018-02-04T10:47:42.468Z,5.60
2018-02-04T10:50:09.941Z,5.60
2018-02-04T10:52:37.421Z,5.60
2018-02-04T10:55:04.889Z,5.60
2018-02-04T10:57:32.395Z,5.50
2018-02-04T10:59:59.903Z,5.50
2018-02-04T11:02:27.406Z,5.40
2018-02-04T11:04:55.825Z,5.30
2018-02-04T11:07:23.297Z,5.40
2018-02-04T11:09:50.757Z,5.30
2018-02-04T11:12:18.212Z,5.30
2018-02-04T11:14:47.172Z,5.40
2018-02-04T11:17:14.768Z,5.40
2018-02-04T11:19:43.015Z,5.50
2018-02-04T11:22:10.501Z,5.50
2018-02-04T11:24:38.023Z,5.50
2018-02-04T11:27:05.596Z,5.40
2018-02-04T11:29:33.049Z,5.40
2018-02-04T11:32:00.603Z,5.50
2018-02-04T11:34:28.854Z,5.50
2018-02-04T11:36:56.358Z,5.80
2018-02-04T11:39:24.641Z,6.10
2018-02-04T11:41:52.149Z,6.10
2018-02-04T11:44:19.771Z,6.20
2018-02-04T11:46:49.668Z,6.30
2018-02-04T11:49:17.340Z,6.30
2018-02-04T11:51:45.560Z,6.30
2018-02-04T11:54:13.012Z,6.30
2018-02-04T11:56:40.476Z,6.30
2018-02-04T11:59:07.939Z,6.40
2018-02-04T12:01:39.008Z,6.60
2018-02-04T12:04:06.468Z,6.80
2018-02-04T12:06:33.948Z,6.90
2018-02-04T12:09:01.406Z,6.90
2018-02-04T12:11:28.864Z,6.90
2018-02-04T12:13:57.306Z,6.80
2018-02-04T12:16:24.765Z,6.80
2018-02-04T12:18:52.277Z,6.80
2018-02-04T12:21:19.780Z,6.90
2018-02-04T12:23:47.236Z,6.90
2018-02-04T12:26:15.637Z,6.90
2018-02-04T12:28:43.112Z,6.70
2018-02-04T12:31:11.324Z,6.70
2018-02-04T12:33:38.833Z,6.70
2018-02-04T12:36:06.283Z,6.60
2018-02-04T12:38:35.185Z,6.60
2018-02-04T12:41:02.721Z,6.70
2018-02-04T12:43:30.167Z,7.00
2018-02-04T12:45:57.652Z,7.10
2018-02-04T12:48:25.099Z,7.20
2018-02-04T12:50:52.601Z,7.30
2018-02-04T12:53:20.101Z,7.30
2018-02-04T12:55:47.548Z,7.30
2018-02-04T12:58:15.017Z,7.20
2018-02-04T13:00:43.416Z,7.00
2018-02-04T13:03:11.138Z,6.70
2018-02-04T13:05:38.616Z,6.50
2018-02-04T13:08:06.069Z,6.50
2018-02-04T13:10:33.540Z,6.40
2018-02-04T13:13:01.009Z,6.30
2018-02-04T13:15:29.229Z,6.60
2018-02-04T13:18:00.621Z,6.60
2018-02-04T13:20:28.879Z,6.80
2018-02-04T13:22:56.678Z,7.00
2018-02-04T13:25:24.221Z,7.20
2018-02-04T13:27:51.957Z,7.20
2018-02-04T13:30:19.437Z,7.10
2018-02-04T13:32:46.891Z,7.00
2018-02-04T13:35:14.353Z,6.90
2018-02-04T13:37:41.842Z,6.80
2018-02-04T13:40:09.286Z,6.60
2018-02-04T13:42:36.753Z,6.40
2018-02-04T13:45:04.189Z,6.40
2018-02-04T13:47:31.716Z,6.50
2018-02-04T13:49:59.316Z,6.50
2018-02-04T13:52:26.918Z,6.50
2018-02-04T13:54:55.051Z,6.40
2018-02-04T13:57:22.506Z,6.30
2018-02-04T13:59:50.040Z,6.10
2018-02-04T14:02:17.481Z,6.00
2018-02-04T14:04:44.932Z,5.80
2018-02-04T14:07:12.488Z,5.70
2018-02-04T14:09:39.973Z,5.60
2018-02-04T14:12:08.559Z,5.50
2018-02-04T14:14:36.029Z,5.40
2018-02-04T14:17:03.513Z,5.30
2018-02-04T14:19:30.965Z,5.30
2018-02-04T14:21:58.487Z,5.20
2018-02-04T14:24:25.940Z,5.20
2018-02-04T14:26:53.401Z,5.20
2018-02-04T14:29:20.884Z,5.10
2018-02-04T14:31:48.628Z,5.00
2018-02-04T14:34:20.553Z,4.90
2018-02-04T14:36:48.022Z,4.90
2018-02-04T14:39:15.488Z,4.80
2018-02-04T14:41:43.092Z,4.80
2018-02-04T14:44:10.526Z,4.50
2018-02-04T14:46:37.982Z,4.20
2018-02-04T14:49:08.152Z,3.80
2018-02-04T14:51:37.208Z,3.80
2018-02-04T14:54:04.689Z,3.80
2018-02-04T14:56:32.309Z,3.80
2018-02-04T14:58:59.887Z,3.80
2018-02-04T15:01:27.327Z,3.90
2018-02-04T15:03:57.225Z,4.00
2018-02-04T15:06:26.417Z,3.80
2018-02-04T15:08:53.885Z,3.80
2018-02-04T15:11:21.346Z,3.70
2018-02-04T15:13:48.826Z,3.60
2018-02-04T15:16:17.069Z,3.50
2018-02-04T15:18:44.561Z,3.50
2018-02-04T15:21:12.040Z,3.40
2018-02-04T15:23:41.170Z,3.40
2018-02-04T15:26:08.964Z,3.40
2018-02-04T15:28:36.498Z,3.40
2018-02-04T15:31:04.585Z,3.40
2018-02-04T15:33:32.073Z,3.30
2018-02-04T15:36:03.761Z,3.30
2018-02-04T15:38:31.444Z,3.30
2018-02-04T15:41:00.420Z,3.30
2018-02-04T15:43:27.886Z,3.30
2018-02-04T15:45:55.389Z,3.20
2018-02-04T15:48:22.943Z,3.20
2018-02-04T15:51:00.567Z,3.10
2018-02-04T15:53:28.785Z,3.00
2018-02-04T15:55:56.337Z,3.00
2018-02-04T15:58:23.796Z,3.00
2018-02-04T16:00:51.289Z,2.90
2018-02-04T16:03:18.790Z,2.80
2018-02-04T16:05:46.340Z,2.80
2018-02-04T16:08:14.389Z,2.70
2018-02-04T16:10:41.864Z,2.70
2018-02-04T16:13:09.335Z,2.80
2018-02-04T16:15:36.824Z,2.70
2018-02-04T16:18:04.316Z,2.70
2018-02-04T16:20:31.825Z,2.60
2018-02-04T16:22:59.278Z,2.60
2018-02-04T16:25:26.735Z,2.60
2018-02-04T16:27:54.290Z,2.60
2018-02-04T16:30:23.466Z,2.50
2018-02-04T16:32:50.912Z,2.50
2018-02-04T16:35:18.429Z,2.50
2018-02-04T16:37:45.885Z,2.50
2018-02-04T16:40:13.376Z,2.40
2018-02-04T16:42:41.768Z,2.50
2018-02-04T16:45:10.042Z,2.40
2018-02-04T16:47:37.547Z,2.40
2018-02-04T16:52:42.560Z,2.30
2018-02-04T16:55:10.006Z,2.30
2018-02-04T16:57:37.511Z,2.30
2018-02-04T17:00:04.959Z,2.30
2018-02-04T17:02:32.520Z,2.30
2018-02-04T17:04:59.982Z,2.20
2018-02-04T17:07:27.581Z,2.10
2018-02-04T17:09:55.057Z,2.10
2018-02-04T17:12:22.568Z,2.10
2018-02-04T17:14:50.037Z,2.10
2018-02-04T17:17:17.480Z,2.00
2018-02-04T17:19:45.733Z,2.00
2018-02-04T17:22:13.183Z,1.90
2018-02-04T17:24:40.698Z,1.90
2018-02-04T17:27:08.156Z,1.90
2018-02-04T17:29:35.608Z,2.00
2018-02-04T17:32:03.159Z,2.10
2018-02-04T17:34:30.742Z,2.10
2018-02-04T17:36:59.881Z,2.20
2018-02-04T17:39:28.885Z,2.20
2018-02-04T17:41:56.431Z,2.30
2018-02-04T17:44:24.565Z,2.40
2018-02-04T17:46:52.267Z,2.50
2018-02-04T17:49:19.827Z,2.50
2018-02-04T17:51:47.340Z,2.40
2018-02-04T17:54:14.934Z,2.40
2018-02-04T17:56:43.321Z,2.40
2018-02-04T17:59:10.994Z,2.40
2018-02-04T18:01:38.518Z,2.40
2018-02-04T18:04:06.748Z,2.30
2018-02-04T18:06:34.219Z,2.20
2018-02-04T18:09:02.763Z,2.10
2018-02-04T18:11:30.320Z,2.10
2018-02-04T18:13:58.802Z,2.00
2018-02-04T18:16:26.445Z,1.90
2018-02-04T18:18:54.749Z,1.90
2018-02-04T18:21:22.266Z,1.90
2018-02-04T18:23:53.507Z,1.90
2018-02-04T18:26:20.949Z,1.80
2018-02-04T18:28:48.426Z,1.70
2018-02-04T18:31:17.582Z,1.50
2018-02-04T18:33:45.068Z,1.50
2018-02-04T18:36:13.285Z,1.30
2018-02-04T18:38:46.535Z,1.20
2018-02-04T18:41:14.236Z,1.20
2018-02-04T18:43:42.044Z,1.10
2018-02-04T18:46:10.640Z,1.00
2018-02-04T18:48:38.120Z,1.00
2018-02-04T18:51:05.587Z,0.90
2018-02-04T18:53:37.824Z,0.80
2018-02-04T18:56:05.261Z,0.80
2018-02-04T18:58:32.709Z,0.80
2018-02-04T19:01:00.262Z,0.70
2018-02-04T19:03:27.774Z,0.60
2018-02-04T19:05:55.431Z,0.60
2018-02-04T19:08:22.967Z,0.60
2018-02-04T19:10:51.165Z,0.70
2018-02-04T19:13:19.101Z,0.70
2018-02-04T19:15:47.814Z,0.70
2018-02-04T19:18:16.093Z,0.70
2018-02-04T19:20:43.631Z,0.90
2018-02-04T19:23:13.829Z,1.00
2018-02-04T19:25:41.366Z,1.00
2018-02-04T19:28:08.976Z,1.00
2018-02-04T19:30:36.555Z,1.00
2018-02-04T19:33:04.037Z,1.10
2018-02-04T19:35:33.109Z,1.10
2018-02-04T19:38:01.315Z,1.20
2018-02-04T19:40:39.815Z,1.20
2018-02-04T19:43:08.682Z,1.00
2018-02-04T19:45:38.192Z,1.10
2018-02-04T19:48:05.684Z,1.10
2018-02-04T19:50:33.248Z,1.10
2018-02-04T19:53:01.797Z,1.20
2018-02-04T19:55:33.714Z,1.20
2018-02-04T19:58:02.091Z,1.10
2018-02-04T20:00:30.770Z,1.00
2018-02-04T20:02:58.372Z,0.80
2018-02-04T20:05:27.299Z,0.70
2018-02-04T20:07:55.185Z,0.80
2018-02-04T20:10:31.220Z,0.70
2018-02-04T20:12:58.675Z,0.80
2018-02-04T20:15:26.776Z,0.80
2018-02-04T20:17:54.220Z,0.70
2018-02-04T20:20:22.649Z,0.70
2018-02-04T20:22:50.154Z,0.70
2018-02-04T20:25:17.663Z,0.60
2018-02-04T20:27:45.246Z,0.50
2018-02-04T20:30:12.814Z,0.50
2018-02-04T20:32:53.337Z,0.40
2018-02-04T20:35:21.559Z,0.30
2018-02-04T20:37:49.616Z,0.20
2018-02-04T20:40:30.926Z,0.10
2018-02-04T20:42:58.977Z,0.10
2018-02-04T20:45:30.261Z,0.00
2018-02-04T20:48:01.592Z,-0.40
2018-02-04T20:50:29.039Z,-0.40
2018-02-04T20:52:56.559Z,-0.40
2018-02-04T20:55:25.709Z,-0.50
2018-02-04T20:57:53.328Z,-0.50
2018-02-04T21:00:21.241Z,-0.60
2018-02-04T21:02:48.780Z,-0.60
2018-02-04T21:05:16.772Z,-0.70
2018-02-04T21:07:44.240Z,-0.80
2018-02-04T21:10:12.250Z,-0.90
2018-02-04T21:12:39.777Z,-0.90
2018-02-04T21:15:13.813Z,-0.90
2018-02-04T21:17:42.066Z,-1.00
2018-02-04T21:20:11.173Z,-1.10
2018-02-04T21:22:38.707Z,-1.10
2018-02-04T21:25:06.176Z,-1.00
2018-02-04T21:27:33.722Z,-0.90
2018-02-04T21:30:04.488Z,-0.80
2018-02-04T21:32:37.527Z,-0.70
2018-02-04T21:35:05.763Z,-0.60
2018-02-04T21:37:34.040Z,-0.50
2018-02-04T21:40:02.600Z,-0.30
2018-02-04T21:42:33.236Z,-0.40
2018-02-04T21:45:01.581Z,-0.10
2018-02-04T21:47:29.085Z,-0.10
2018-02-04T21:49:56.528Z,0.00
2018-02-04T21:52:24.374Z,0.10
2018-02-04T21:54:51.863Z,0.10
2018-02-04T21:57:19.870Z,0.20
2018-02-04T21:59:47.465Z,0.20
2018-02-04T22:02:14.920Z,0.20
2018-02-04T22:04:42.393Z,0.10
2018-02-04T22:07:09.917Z,0.10
2018-02-04T22:09:38.124Z,0.10
2018-02-04T22:12:12.914Z,0.10
2018-02-04T22:14:40.355Z,0.20
2018-02-04T22:17:07.836Z,0.20
2018-02-04T22:19:35.370Z,0.20
2018-02-04T22:22:02.876Z,0.20
2018-02-04T22:24:30.345Z,0.20
2018-02-04T22:27:03.174Z,0.20
2018-02-04T22:29:30.636Z,0.20
2018-02-04T22:31:58.154Z,0.20
2018-02-04T22:34:25.687Z,0.30
2018-02-04T22:36:54.441Z,0.30
2018-02-04T22:39:21.896Z,0.20
2018-02-04T22:41:49.365Z,0.30
2018-02-04T22:44:16.828Z,0.30
2018-02-04T22:46:44.297Z,0.20
2018-02-04T22:49:12.691Z,0.20
2018-02-04T22:51:40.160Z,0.10
2018-02-04T22:54:07.599Z,-0.10
2018-02-04T22:56:35.142Z,-0.20
2018-02-04T22:59:02.592Z,-0.40
2018-02-04T23:01:30.049Z,-0.50
2018-02-04T23:03:57.524Z,-0.50
2018-02-04T23:06:25.096Z,-0.60
2018-02-04T23:08:52.677Z,-0.70
2018-02-04T23:11:21.853Z,-0.80
2018-02-04T23:13:52.797Z,-0.80
2018-02-04T23:16:20.243Z,-0.80
2018-02-04T23:18:47.718Z,-0.80
2018-02-04T23:21:15.213Z,-0.80
2018-02-04T23:23:42.657Z,-0.80
2018-02-04T23:26:10.723Z,-0.80
2018-02-04T23:28:38.177Z,-0.70
2018-02-04T23:31:05.644Z,-0.70
2018-02-04T23:33:33.099Z,-0.60
2018-02-04T23:36:00.572Z,-0.60
2018-02-04T23:38:28.028Z,-0.60
2018-02-04T23:40:55.518Z,-0.60
2018-02-04T23:43:26.283Z,-0.60
2018-02-04T23:45:53.728Z,-0.60
2018-02-04T23:48:21.211Z,-0.60
2018-02-04T23:50:49.269Z,-0.60
2018-02-04T23:53:16.752Z,-0.60
2018-02-04T23:55:44.224Z,-0.60
2018-02-04T23:58:11.867Z,-0.60
